Time;durP1;ratioP1;P1;durP2;ratioP2;P2;SDS_P1;SDS_P2;PMS_P1;PMS_P2;Temp;Humidity;BMP_temperature;BMP_pressure;BME280_temperature;BME280_humidity;BME280_pressure;Samples;Min_cycle;Max_cycle;Signal;HPM_P1;HPM_P2
2023/04/09 00:01:05;;;;;;;34.55;28.95;;;11.40;99.90;;;;;;5036636;28;20028;-74
2023/04/09 00:03:31;;;;;;;40.45;30.55;;;11.40;99.90;;;;;;5034895;28;20045;-75
2023/04/09 00:05:56;;;;;;;41.35;30.80;;;11.40;99.90;;;;;;5046447;28;20108;-74
2023/04/09 00:08:22;;;;;;;33.55;26.30;;;11.30;99.90;;;;;;5033889;28;20014;-75
2023/04/09 00:10:52;;;;;;;36.38;28.88;;;11.30;99.90;;;;;;5042646;28;20108;-74
2023/04/09 00:13:18;;;;;;;34.95;28.25;;;11.30;99.90;;;;;;5046810;28;20021;-74
2023/04/09 00:15:44;;;;;;;37.67;29.13;;;11.30;99.90;;;;;;5032319;28;20021;-74
2023/04/09 00:18:10;;;;;;;38.35;28.52;;;11.30;99.90;;;;;;5045627;28;20032;-74
2023/04/09 00:20:36;;;;;;;39.80;29.20;;;11.30;99.90;;;;;;5032445;28;20034;-74
2023/04/09 00:23:01;;;;;;;38.95;27.85;;;11.30;99.90;;;;;;5034223;28;20382;-74
2023/04/09 00:25:27;;;;;;;35.78;28.20;;;11.40;99.90;;;;;;5042039;28;20028;-74
2023/04/09 00:27:53;;;;;;;36.50;28.08;;;11.40;99.90;;;;;;5032624;28;20013;-74
2023/04/09 00:30:19;;;;;;;38.40;30.00;;;11.40;99.90;;;;;;5036165;28;20021;-74
2023/04/09 00:32:45;;;;;;;38.83;29.48;;;11.40;99.90;;;;;;5051939;28;20029;-74
2023/04/09 00:35:10;;;;;;;37.72;27.75;;;11.40;99.90;;;;;;5032177;28;20108;-73
2023/04/09 00:37:36;;;;;;;40.33;28.30;;;11.40;99.90;;;;;;5031640;28;20021;-74
2023/04/09 00:40:02;;;;;;;40.67;30.02;;;11.40;99.90;;;;;;5032284;28;20041;-74
2023/04/09 00:42:31;;;;;;;38.92;28.77;;;11.40;99.90;;;;;;5032239;28;20025;-74
2023/04/09 00:44:57;;;;;;;43.97;30.77;;;11.40;99.90;;;;;;5031635;28;20022;-74
2023/04/09 00:47:22;;;;;;;38.28;30.00;;;11.40;99.90;;;;;;5032091;28;20363;-74
2023/04/09 00:49:48;;;;;;;36.83;29.13;;;11.40;99.90;;;;;;5032458;28;20097;-74
2023/04/09 00:52:14;;;;;;;40.45;30.15;;;11.40;99.90;;;;;;5044698;28;20039;-74
2023/04/09 00:54:40;;;;;;;40.40;29.58;;;11.40;99.90;;;;;;5045996;28;20044;-75
2023/04/09 00:57:05;;;;;;;41.03;30.25;;;11.40;99.90;;;;;;5051710;28;20033;-74
2023/04/09 00:59:31;;;;;;;39.85;29.23;;;11.50;99.90;;;;;;5050528;28;20037;-74
2023/04/09 01:01:57;;;;;;;39.92;30.38;;;11.40;99.90;;;;;;5051498;28;20052;-74
2023/04/09 01:04:23;;;;;;;43.15;31.58;;;11.40;99.90;;;;;;5034063;28;20021;-74
2023/04/09 01:07:01;;;;;;;39.70;29.90;;;11.40;99.90;;;;;;5031231;28;20057;-74
2023/04/09 01:09:32;;;;;;;38.90;29.15;;;11.40;99.90;;;;;;5032011;28;20024;-74
2023/04/09 01:12:20;;;;;;;36.88;29.13;;;11.40;99.90;;;;;;5031746;28;20029;-74
2023/04/09 01:14:51;;;;;;;39.67;30.13;;;11.30;99.90;;;;;;5022283;28;20017;-74
2023/04/09 01:17:54;;;;;;;39.33;29.58;;;11.30;99.90;;;;;;5033124;28;20033;-74
2023/04/09 01:20:41;;;;;;;41.25;29.65;;;11.30;99.90;;;;;;5032108;28;20029;-74
2023/04/09 01:23:17;;;;;;;37.40;27.65;;;11.30;99.90;;;;;;5032081;28;20105;-75
2023/04/09 01:26:07;;;;;;;38.15;30.05;;;11.30;99.90;;;;;;5032138;28;20014;-75
2023/04/09 01:28:38;;;;;;;42.67;30.98;;;11.20;99.90;;;;;;5034221;28;20028;-74
2023/04/09 01:31:12;;;;;;;42.30;31.40;;;11.20;99.90;;;;;;5052241;28;20029;-74
2023/04/09 01:33:39;;;;;;;37.72;28.10;;;11.20;99.90;;;;;;5034705;28;20033;-75
2023/04/09 01:36:06;;;;;;;37.50;28.35;;;11.30;99.90;;;;;;5031050;28;20034;-75
2023/04/09 01:38:35;;;;;;;39.15;28.60;;;11.20;99.90;;;;;;5030910;28;20060;-75
2023/04/09 01:41:01;;;;;;;36.88;29.55;;;11.30;99.90;;;;;;5031048;28;20033;-75
2023/04/09 01:43:27;;;;;;;40.78;30.35;;;11.30;99.90;;;;;;5031155;28;20025;-75
2023/04/09 01:45:54;;;;;;;39.63;30.52;;;11.30;99.90;;;;;;5030455;28;20077;-75
2023/04/09 01:48:20;;;;;;;42.95;31.48;;;11.30;99.90;;;;;;5049992;28;20028;-75
2023/04/09 01:50:46;;;;;;;37.45;30.63;;;11.20;99.90;;;;;;5029213;28;20049;-75
2023/04/09 01:53:12;;;;;;;37.38;28.83;;;11.30;99.90;;;;;;5031073;28;20036;-75
2023/04/09 01:55:38;;;;;;;39.47;29.75;;;11.20;99.90;;;;;;5031136;28;20502;-74
2023/04/09 01:58:03;;;;;;;39.15;30.17;;;11.20;99.90;;;;;;5031308;28;20040;-75
2023/04/09 02:00:42;;;;;;;37.53;30.00;;;11.20;99.90;;;;;;5031564;28;20029;-76
2023/04/09 02:03:15;;;;;;;35.13;28.58;;;11.30;99.90;;;;;;5031222;28;20061;-75
2023/04/09 02:05:45;;;;;;;36.60;28.25;;;11.30;99.90;;;;;;5030722;28;20470;-75
2023/04/09 02:08:15;;;;;;;34.33;26.80;;;11.30;99.90;;;;;;5042303;28;20030;-75
2023/04/09 02:10:45;;;;;;;33.25;26.27;;;11.30;99.90;;;;;;5030673;28;20017;-75
2023/04/09 02:13:15;;;;;;;34.70;26.73;;;11.30;99.90;;;;;;5030796;28;20390;-75
2023/04/09 02:15:40;;;;;;;35.00;26.92;;;11.30;99.90;;;;;;5030575;28;20021;-75
2023/04/09 02:18:27;;;;;;;36.45;27.98;;;11.30;99.90;;;;;;5030109;28;20825;-75
2023/04/09 02:20:56;;;;;;;31.65;26.73;;;11.30;99.90;;;;;;5030195;28;20029;-75
2023/04/09 02:23:23;;;;;;;36.17;26.33;;;11.30;99.90;;;;;;5030438;28;20477;-75
2023/04/09 02:25:49;;;;;;;32.50;26.77;;;11.30;99.90;;;;;;5017585;28;20092;-75
2023/04/09 02:28:15;;;;;;;37.15;27.48;;;11.30;99.90;;;;;;5029972;28;20486;-75
2023/04/09 02:30:40;;;;;;;34.22;25.83;;;11.30;99.90;;;;;;5050243;28;20017;-75
2023/04/09 02:33:06;;;;;;;33.42;26.65;;;11.30;99.90;;;;;;5033666;28;20079;-75
2023/04/09 02:35:32;;;;;;;31.90;26.58;;;11.30;99.90;;;;;;5030469;28;20502;-75
2023/04/09 02:37:58;;;;;;;34.30;27.98;;;11.20;99.90;;;;;;5030754;28;20466;-75
2023/04/09 02:40:23;;;;;;;33.42;27.20;;;11.20;99.90;;;;;;5030210;28;20060;-75
2023/04/09 02:42:51;;;;;;;34.90;27.45;;;11.20;99.90;;;;;;5029058;28;20032;-75
2023/04/09 02:45:16;;;;;;;35.38;26.80;;;11.20;99.90;;;;;;5030357;28;20014;-74
2023/04/09 02:47:42;;;;;;;37.90;27.45;;;11.20;99.90;;;;;;5030235;28;20391;-75
2023/04/09 02:50:07;;;;;;;36.13;27.85;;;11.20;99.90;;;;;;5030648;28;20030;-74
2023/04/09 02:52:33;;;;;;;35.42;27.42;;;11.20;99.90;;;;;;5030903;28;20026;-75
2023/04/09 02:54:58;;;;;;;36.17;26.77;;;11.20;99.90;;;;;;5030489;28;20030;-74
2023/04/09 02:57:24;;;;;;;34.70;28.63;;;11.20;99.90;;;;;;5030188;28;20094;-75
2023/04/09 02:59:49;;;;;;;37.03;28.33;;;11.20;99.90;;;;;;5029893;28;20467;-75
2023/04/09 03:02:15;;;;;;;37.83;28.55;;;11.20;99.90;;;;;;5029512;28;20518;-74
2023/04/09 03:04:41;;;;;;;39.55;31.73;;;11.20;99.90;;;;;;5028754;28;20030;-75
2023/04/09 03:07:06;;;;;;;38.60;28.70;;;11.20;99.90;;;;;;5030134;28;20033;-74
2023/04/09 03:09:32;;;;;;;37.58;30.55;;;11.20;99.90;;;;;;5028864;28;20029;-74
2023/04/09 03:11:58;;;;;;;35.58;27.27;;;11.20;99.90;;;;;;5029182;28;20036;-75
2023/04/09 03:14:23;;;;;;;38.50;29.30;;;11.20;99.90;;;;;;5030366;28;20030;-75
2023/04/09 03:16:49;;;;;;;38.88;29.88;;;11.20;99.90;;;;;;5029980;28;20034;-75
2023/04/09 03:19:15;;;;;;;36.03;27.70;;;11.10;99.90;;;;;;5029983;28;20383;-75
2023/04/09 03:21:41;;;;;;;40.25;29.40;;;11.20;99.90;;;;;;5030185;28;20021;-74
2023/04/09 03:24:07;;;;;;;38.15;29.95;;;11.10;99.90;;;;;;5029802;28;20052;-74
2023/04/09 03:26:35;;;;;;;35.83;27.45;;;11.10;99.90;;;;;;5029652;28;20022;-74
2023/04/09 03:29:05;;;;;;;38.10;29.45;;;11.10;99.90;;;;;;5037279;28;20029;-75
2023/04/09 03:31:31;;;;;;;38.17;28.73;;;11.10;99.90;;;;;;5050253;28;20029;-74
2023/04/09 03:33:56;;;;;;;37.95;28.42;;;11.10;99.90;;;;;;5030182;28;20147;-75
2023/04/09 03:36:22;;;;;;;34.58;28.38;;;11.10;99.90;;;;;;5029682;28;20026;-75
2023/04/09 03:38:48;;;;;;;42.15;29.45;;;11.10;99.90;;;;;;5028554;28;20017;-75
2023/04/09 03:41:14;;;;;;;36.97;28.42;;;11.10;99.90;;;;;;5030006;28;20113;-74
2023/04/09 03:43:39;;;;;;;42.33;31.05;;;11.10;99.90;;;;;;5030565;28;20025;-74
2023/04/09 03:46:15;;;;;;;45.15;33.00;;;11.10;99.90;;;;;;5033861;28;20022;-74
2023/04/09 03:48:41;;;;;;;44.45;32.08;;;11.10;99.90;;;;;;5033821;28;20013;-74
2023/04/09 03:51:11;;;;;;;38.22;29.27;;;11.10;99.90;;;;;;5034302;28;20106;-74
2023/04/09 03:53:37;;;;;;;41.50;31.13;;;11.10;99.90;;;;;;5032370;28;20396;-74
2023/04/09 03:56:02;;;;;;;40.47;29.85;;;11.10;99.90;;;;;;5033091;28;20466;-74
2023/04/09 03:58:28;;;;;;;41.00;31.25;;;11.10;99.90;;;;;;5032787;28;20025;-74
2023/04/09 04:00:53;;;;;;;37.78;28.65;;;11.00;99.90;;;;;;5035879;28;20032;-75
2023/04/09 04:03:19;;;;;;;37.65;29.00;;;11.00;99.90;;;;;;5051920;28;20053;-75
2023/04/09 04:05:45;;;;;;;39.05;30.00;;;11.00;99.90;;;;;;5052215;28;20482;-74
2023/04/09 04:08:10;;;;;;;40.22;28.92;;;11.00;99.90;;;;;;5052370;28;20032;-74
2023/04/09 04:10:36;;;;;;;36.85;28.13;;;11.00;99.90;;;;;;5047155;28;20025;-75
2023/04/09 04:13:01;;;;;;;37.35;29.48;;;11.00;99.90;;;;;;5040022;28;20095;-74
2023/04/09 04:15:27;;;;;;;35.45;28.65;;;11.00;99.90;;;;;;5032144;28;20029;-75
2023/04/09 04:17:53;;;;;;;38.83;28.60;;;11.00;99.90;;;;;;5041557;28;20025;-75
2023/04/09 04:20:19;;;;;;;35.65;28.75;;;10.90;99.90;;;;;;5035325;28;20383;-74
2023/04/09 04:22:45;;;;;;;36.75;27.83;;;10.90;99.90;;;;;;5040882;28;20047;-75
2023/04/09 04:25:10;;;;;;;33.78;27.35;;;10.90;99.90;;;;;;5035622;28;20037;-75
2023/04/09 04:27:36;;;;;;;41.80;29.20;;;10.90;99.90;;;;;;5032863;28;20026;-75
2023/04/09 04:30:02;;;;;;;40.63;30.55;;;10.90;99.90;;;;;;5035920;28;20096;-74
2023/04/09 04:32:27;;;;;;;37.60;28.50;;;10.80;99.90;;;;;;5042451;28;20053;-74
2023/04/09 04:34:53;;;;;;;36.35;28.80;;;10.70;99.90;;;;;;5045021;28;20022;-75
2023/04/09 04:37:19;;;;;;;34.95;28.75;;;10.70;99.90;;;;;;5032103;28;20447;-74
2023/04/09 04:39:45;;;;;;;37.22;28.23;;;10.70;99.90;;;;;;5033447;28;20056;-74
2023/04/09 04:42:10;;;;;;;35.58;27.90;;;10.70;99.90;;;;;;5039355;28;20056;-74
2023/04/09 04:44:36;;;;;;;35.58;27.40;;;10.70;99.90;;;;;;5050658;28;20024;-74
2023/04/09 04:47:01;;;;;;;36.28;27.25;;;10.60;99.90;;;;;;5051608;28;20028;-74
2023/04/09 04:49:27;;;;;;;37.95;28.45;;;10.70;99.90;;;;;;5032223;28;20028;-75
2023/04/09 04:51:53;;;;;;;35.40;27.35;;;10.60;99.90;;;;;;5030822;28;20022;-74
2023/04/09 04:54:18;;;;;;;38.08;28.50;;;10.60;99.90;;;;;;5030313;28;20033;-75
2023/04/09 04:56:44;;;;;;;37.88;28.77;;;10.50;99.90;;;;;;5029390;28;20029;-74
2023/04/09 04:59:09;;;;;;;34.42;27.90;;;10.50;99.90;;;;;;5041286;28;20021;-74
2023/04/09 05:01:35;;;;;;;35.45;26.52;;;10.50;99.90;;;;;;5036470;28;20386;-75
2023/04/09 05:04:02;;;;;;;40.55;29.65;;;10.40;99.90;;;;;;5039751;28;20037;-75
2023/04/09 05:06:28;;;;;;;36.15;28.10;;;10.40;99.90;;;;;;5036041;28;20053;-74
2023/04/09 05:08:56;;;;;;;38.20;28.13;;;10.30;99.90;;;;;;5040487;28;20378;-75
2023/04/09 05:11:23;;;;;;;38.38;27.83;;;10.30;99.90;;;;;;5035879;28;20482;-75
2023/04/09 05:13:49;;;;;;;35.30;28.02;;;10.20;99.90;;;;;;5040413;28;20017;-75
2023/04/09 05:16:17;;;;;;;36.45;27.05;;;10.10;99.90;;;;;;5036810;28;20021;-74
2023/04/09 05:18:42;;;;;;;36.80;26.80;;;10.00;99.90;;;;;;5040994;28;20013;-75
2023/04/09 05:21:08;;;;;;;40.85;27.48;;;9.90;99.90;;;;;;5037171;28;20045;-74
2023/04/09 05:23:33;;;;;;;34.40;25.23;;;9.80;99.90;;;;;;5040436;28;20045;-75
2023/04/09 05:25:59;;;;;;;35.50;26.38;;;9.70;99.90;;;;;;5022018;28;20444;-74
2023/04/09 05:28:24;;;;;;;36.13;27.25;;;9.70;99.90;;;;;;5045936;28;20413;-74
2023/04/09 05:30:50;;;;;;;36.00;26.73;;;9.60;99.90;;;;;;5047068;28;20025;-75
2023/04/09 05:33:15;;;;;;;36.53;26.40;;;9.50;99.90;;;;;;5034314;28;20097;-74
2023/04/09 05:35:41;;;;;;;38.00;25.70;;;9.50;99.90;;;;;;5031141;28;20394;-74
2023/04/09 05:38:07;;;;;;;33.85;24.73;;;9.40;99.90;;;;;;5031407;28;20030;-74
2023/04/09 05:40:32;;;;;;;33.22;23.63;;;9.40;99.90;;;;;;5030803;28;20864;-75
2023/04/09 05:42:58;;;;;;;36.47;25.65;;;9.30;99.90;;;;;;5031141;28;20176;-75
2023/04/09 05:45:24;;;;;;;34.95;25.50;;;9.30;99.90;;;;;;5029628;28;20021;-75
2023/04/09 05:47:49;;;;;;;33.47;24.80;;;9.30;99.90;;;;;;5031620;28;20040;-74
2023/04/09 05:50:15;;;;;;;36.47;27.08;;;9.20;99.90;;;;;;5031599;28;20053;-75
2023/04/09 05:52:40;;;;;;;32.63;25.35;;;9.20;99.90;;;;;;5032697;28;20045;-75
2023/04/09 05:55:08;;;;;;;43.00;28.02;;;9.20;99.90;;;;;;5030791;28;20115;-75
2023/04/09 05:57:34;;;;;;;39.77;26.93;;;9.10;99.90;;;;;;5032556;28;20343;-75
2023/04/09 05:59:59;;;;;;;36.50;26.07;;;9.10;99.90;;;;;;5030711;28;20071;-74
2023/04/09 06:02:25;;;;;;;35.30;25.33;;;9.10;99.90;;;;;;5032325;28;20052;-75
2023/04/09 06:04:51;;;;;;;38.45;27.38;;;9.10;99.90;;;;;;5031419;28;20036;-74
2023/04/09 06:07:16;;;;;;;40.43;28.40;;;9.10;99.90;;;;;;5042552;28;20063;-74
2023/04/09 06:09:45;;;;;;;37.17;26.70;;;9.10;99.90;;;;;;5041856;28;20082;-75
2023/04/09 06:12:12;;;;;;;36.65;27.98;;;9.10;99.90;;;;;;5042799;28;20508;-74
2023/04/09 06:14:37;;;;;;;32.53;25.27;;;9.10;99.90;;;;;;5044336;28;20029;-75
2023/04/09 06:17:03;;;;;;;38.15;25.65;;;9.10;99.90;;;;;;5042833;28;20029;-75
2023/04/09 06:19:28;;;;;;;39.87;26.97;;;9.10;99.90;;;;;;5047548;28;20029;-75
2023/04/09 06:21:54;;;;;;;43.67;27.77;;;9.20;99.90;;;;;;5030437;28;20040;-74
2023/04/09 06:24:19;;;;;;;36.97;26.65;;;9.10;99.90;;;;;;5042794;28;20039;-75
2023/04/09 06:26:45;;;;;;;43.45;28.75;;;9.20;99.90;;;;;;5039716;28;20102;-74
2023/04/09 06:29:10;;;;;;;40.17;27.80;;;9.20;99.90;;;;;;5032433;28;20033;-74
2023/04/09 06:31:36;;;;;;;41.37;28.83;;;9.20;99.90;;;;;;5038828;28;20047;-74
2023/04/09 06:34:02;;;;;;;39.27;29.30;;;9.20;99.90;;;;;;5034488;28;20037;-75
2023/04/09 06:36:27;;;;;;;37.80;28.15;;;9.20;99.90;;;;;;5029786;28;20033;-74
2023/04/09 06:38:53;;;;;;;39.38;28.92;;;9.20;99.90;;;;;;5038340;28;20421;-75
2023/04/09 06:41:22;;;;;;;37.70;28.48;;;9.30;99.90;;;;;;5046134;28;20025;-74
2023/04/09 06:43:48;;;;;;;38.13;28.58;;;9.30;99.90;;;;;;5029991;28;20356;-74
2023/04/09 06:46:16;;;;;;;37.27;27.10;;;9.40;99.90;;;;;;5030280;28;20518;-74
2023/04/09 06:48:43;;;;;;;40.80;28.17;;;9.40;99.90;;;;;;5030271;28;20104;-75
2023/04/09 06:51:10;;;;;;;41.10;28.83;;;9.40;99.90;;;;;;5030691;28;20021;-75
2023/04/09 06:53:36;;;;;;;37.08;27.58;;;9.40;99.90;;;;;;5029673;28;20029;-74
2023/04/09 06:56:02;;;;;;;38.00;27.35;;;9.50;99.90;;;;;;5031155;28;20060;-74
2023/04/09 06:58:27;;;;;;;41.10;29.70;;;9.50;99.90;;;;;;5030554;28;20474;-75
2023/04/09 07:00:53;;;;;;;40.63;27.83;;;9.50;99.90;;;;;;5030941;28;20041;-75
2023/04/09 07:03:18;;;;;;;37.83;27.55;;;9.60;99.90;;;;;;5029686;28;20407;-74
2023/04/09 07:05:44;;;;;;;43.58;29.50;;;9.60;99.90;;;;;;5032640;28;20049;-75
2023/04/09 07:08:10;;;;;;;41.37;29.20;;;9.70;99.90;;;;;;5030840;28;20556;-75
2023/04/09 07:10:36;;;;;;;39.28;28.15;;;9.70;99.90;;;;;;5032400;28;20028;-75
2023/04/09 07:13:02;;;;;;;38.33;28.60;;;9.80;99.90;;;;;;5039797;28;20048;-75
2023/04/09 07:15:28;;;;;;;37.08;28.55;;;9.80;99.90;;;;;;5044473;28;20557;-75
2023/04/09 07:17:54;;;;;;;42.80;28.23;;;9.90;99.90;;;;;;5046958;28;20232;-75
2023/04/09 07:20:19;;;;;;;35.63;27.10;;;9.90;99.90;;;;;;5045972;28;20100;-74
2023/04/09 07:22:45;;;;;;;40.88;29.27;;;10.00;99.90;;;;;;5049848;28;20025;-74
2023/04/09 07:25:10;;;;;;;38.45;28.60;;;10.00;99.90;;;;;;5048199;28;20369;-74
2023/04/09 07:27:36;;;;;;;41.10;28.67;;;10.10;99.90;;;;;;5051282;28;20021;-75
2023/04/09 07:30:02;;;;;;;34.50;26.33;;;10.10;99.90;;;;;;5042960;28;20029;-75
2023/04/09 07:32:28;;;;;;;36.30;28.17;;;10.20;99.90;;;;;;5047337;28;20032;-75
2023/04/09 07:34:54;;;;;;;39.70;27.00;;;10.30;99.90;;;;;;5045341;28;20053;-74
2023/04/09 07:37:20;;;;;;;36.70;27.67;;;10.40;99.90;;;;;;5048702;28;20017;-75
2023/04/09 07:39:46;;;;;;;38.95;28.17;;;10.50;99.90;;;;;;5046026;28;20028;-75
2023/04/09 07:42:12;;;;;;;37.50;28.58;;;10.50;99.90;;;;;;5049237;28;20363;-75
2023/04/09 07:44:38;;;;;;;34.22;27.10;;;10.60;99.90;;;;;;5040957;28;20025;-75
2023/04/09 07:47:05;;;;;;;37.50;28.17;;;10.70;99.90;;;;;;5040666;28;20032;-76
2023/04/09 07:49:30;;;;;;;36.70;27.17;;;10.70;99.90;;;;;;5033841;28;20028;-76
2023/04/09 07:51:57;;;;;;;39.63;28.70;;;10.80;99.90;;;;;;5040983;28;20025;-76
2023/04/09 07:54:23;;;;;;;37.13;28.38;;;10.90;99.90;;;;;;5043341;28;20023;-76
2023/04/09 07:56:49;;;;;;;31.88;25.17;;;11.00;99.90;;;;;;5049186;28;20020;-76
2023/04/09 07:59:15;;;;;;;33.45;26.95;;;11.10;99.90;;;;;;5043410;28;20017;-76
2023/04/09 08:01:41;;;;;;;33.97;25.70;;;11.20;99.90;;;;;;5032672;28;20447;-76
2023/04/09 08:04:08;;;;;;;33.40;26.17;;;11.20;99.90;;;;;;5033764;28;20482;-76
2023/04/09 08:06:33;;;;;;;36.42;26.27;;;11.30;99.90;;;;;;5033241;28;20060;-78
2023/04/09 08:08:59;;;;;;;35.70;27.30;;;11.30;99.90;;;;;;5034283;28;20064;-78
2023/04/09 08:11:25;;;;;;;31.42;25.77;;;11.40;99.90;;;;;;5040153;28;20079;-78
2023/04/09 08:13:54;;;;;;;31.88;25.70;;;11.40;99.90;;;;;;5042763;28;20062;-78
2023/04/09 08:16:22;;;;;;;33.90;25.05;;;11.50;99.90;;;;;;5043752;28;20505;-78
2023/04/09 08:18:48;;;;;;;30.95;24.10;;;11.60;99.90;;;;;;5036116;28;20013;-78
2023/04/09 08:21:14;;;;;;;35.40;25.38;;;11.70;99.90;;;;;;5049847;28;20119;-78
2023/04/09 08:23:40;;;;;;;35.80;25.77;;;11.80;99.90;;;;;;5050109;28;20112;-76
2023/04/09 08:26:05;;;;;;;33.47;25.35;;;11.80;99.90;;;;;;5050389;28;20017;-76
2023/04/09 08:28:31;;;;;;;28.85;23.83;;;11.90;99.90;;;;;;5049558;28;20044;-76
2023/04/09 08:30:57;;;;;;;29.88;22.52;;;12.00;99.90;;;;;;5049901;28;20412;-75
2023/04/09 08:33:23;;;;;;;29.02;23.83;;;12.10;99.90;;;;;;5035207;28;20071;-76
2023/04/09 08:35:48;;;;;;;31.23;24.50;;;12.20;99.90;;;;;;5030590;28;20394;-77
2023/04/09 08:38:14;;;;;;;28.67;22.83;;;12.20;99.90;;;;;;5031913;28;20060;-77
2023/04/09 08:40:40;;;;;;;29.83;23.55;;;12.30;99.90;;;;;;5032099;28;20095;-76
2023/04/09 08:43:07;;;;;;;30.33;23.70;;;12.30;99.90;;;;;;5035426;28;20468;-76
2023/04/09 08:45:33;;;;;;;30.30;23.65;;;12.30;99.90;;;;;;5045002;28;20091;-77
2023/04/09 08:48:02;;;;;;;31.38;24.10;;;12.40;99.90;;;;;;5080847;28;20101;-77
2023/04/09 08:50:29;;;;;;;29.60;23.02;;;12.40;99.90;;;;;;5049891;28;20029;-77
2023/04/09 08:52:57;;;;;;;26.63;22.38;;;12.50;99.90;;;;;;5051440;28;20474;-84
2023/04/09 08:55:23;;;;;;;27.38;22.10;;;12.50;99.90;;;;;;5050233;28;20032;-78
2023/04/09 08:57:49;;;;;;;29.33;23.30;;;12.50;99.90;;;;;;5049193;28;20025;-78
2023/04/09 09:00:14;;;;;;;27.50;22.77;;;12.50;99.90;;;;;;5048986;28;20032;-78
2023/04/09 09:03:02;;;;;;;29.27;22.98;;;12.60;99.90;;;;;;5041337;28;20426;-78
2023/04/09 09:05:54;;;;;;;24.80;19.90;;;12.70;99.90;;;;;;5039537;28;20029;-78
2023/04/09 09:08:24;;;;;;;28.33;20.90;;;12.80;99.90;;;;;;5035433;28;20456;-78
2023/04/09 09:10:50;;;;;;;27.58;22.25;;;12.80;99.90;;;;;;5048436;28;20158;-79
2023/04/09 09:13:21;;;;;;;27.45;23.00;;;12.90;99.90;;;;;;5048830;28;20482;-79
2023/04/09 09:15:51;;;;;;;28.35;22.20;;;13.00;99.90;;;;;;5034116;28;20063;-79
2023/04/09 09:18:18;;;;;;;24.85;21.58;;;13.10;99.90;;;;;;5033419;28;20091;-79
2023/04/09 09:20:43;;;;;;;28.13;21.85;;;13.20;99.90;;;;;;5037275;28;20021;-79
2023/04/09 09:23:09;;;;;;;26.35;20.50;;;13.20;99.90;;;;;;5035393;28;20500;-79
2023/04/09 09:25:42;;;;;;;25.00;20.60;;;13.20;99.90;;;;;;5038288;28;20075;-79
2023/04/09 09:28:11;;;;;;;26.13;20.52;;;13.20;99.90;;;;;;5035764;28;20466;-79
2023/04/09 09:30:39;;;;;;;26.85;20.85;;;13.30;99.90;;;;;;5042105;28;20024;-79
2023/04/09 09:33:09;;;;;;;27.75;22.95;;;13.40;99.90;;;;;;5036744;28;20064;-79
2023/04/09 09:35:48;;;;;;;24.60;19.02;;;13.40;99.90;;;;;;5049770;28;20113;-80
2023/04/09 09:38:15;;;;;;;25.33;19.88;;;13.50;99.90;;;;;;5050451;28;20533;-80
2023/04/09 09:40:40;;;;;;;26.65;20.73;;;13.50;99.90;;;;;;5049327;28;20040;-80
2023/04/09 09:43:06;;;;;;;27.88;21.70;;;13.60;99.90;;;;;;5033797;28;20425;-80
2023/04/09 09:45:32;;;;;;;27.08;21.10;;;13.70;99.90;;;;;;5029721;28;20022;-79
2023/04/09 09:47:58;;;;;;;25.40;21.75;;;13.70;99.90;;;;;;5044137;28;20029;-80
2023/04/09 09:50:24;;;;;;;26.38;21.70;;;13.80;99.90;;;;;;5040511;28;20032;-80
2023/04/09 09:52:57;;;;;;;24.88;20.48;;;13.80;99.90;;;;;;5031280;28;20378;-79
2023/04/09 09:55:24;;;;;;;28.33;22.45;;;13.90;99.90;;;;;;5040341;28;20074;-80
2023/04/09 09:57:53;;;;;;;26.90;21.77;;;14.00;99.90;;;;;;5047777;28;20021;-80
2023/04/09 10:00:24;;;;;;;25.58;21.20;;;14.10;99.90;;;;;;5032007;28;20022;-81
2023/04/09 10:03:09;;;;;;;26.85;21.48;;;14.10;99.90;;;;;;5031771;28;20057;-80
2023/04/09 10:05:37;;;;;;;23.65;19.88;;;14.20;99.90;;;;;;5029506;28;20044;-78
2023/04/09 10:08:03;;;;;;;23.45;19.23;;;14.20;99.90;;;;;;5031296;28;20032;-78
2023/04/09 10:10:30;;;;;;;26.55;21.38;;;14.30;99.70;;;;;;5032709;28;20021;-78
2023/04/09 10:12:56;;;;;;;26.85;21.50;;;14.40;99.20;;;;;;5031253;28;20021;-78
2023/04/09 10:15:22;;;;;;;20.10;17.38;;;14.40;99.30;;;;;;5032224;28;20033;-80
2023/04/09 10:17:48;;;;;;;28.95;20.42;;;14.50;99.20;;;;;;5031103;28;20027;-79
2023/04/09 10:20:27;;;;;;;22.58;19.13;;;14.60;98.70;;;;;;5032854;28;20033;-77
2023/04/09 10:22:54;;;;;;;27.35;20.13;;;14.70;98.40;;;;;;5022208;28;20041;-78
2023/04/09 10:25:20;;;;;;;22.63;17.98;;;14.70;98.30;;;;;;5033086;28;20021;-81
2023/04/09 10:27:58;;;;;;;25.13;20.00;;;14.80;98.20;;;;;;5031379;28;20024;-77
2023/04/09 10:30:34;;;;;;;22.05;17.73;;;14.80;97.90;;;;;;5050183;28;20017;-77
2023/04/09 10:33:26;;;;;;;20.90;17.52;;;14.80;97.50;;;;;;5029804;28;20027;-77
2023/04/09 10:36:01;;;;;;;21.48;17.15;;;14.80;97.20;;;;;;5030563;28;20021;-77
2023/04/09 10:38:37;;;;;;;19.60;17.52;;;14.80;96.90;;;;;;5046227;28;20031;-77
2023/04/09 10:41:24;;;;;;;22.10;17.52;;;14.80;96.60;;;;;;5037162;28;20033;-77
2023/04/09 10:43:49;;;;;;;22.02;16.88;;;14.80;96.90;;;;;;5035833;28;20133;-77
2023/04/09 10:46:27;;;;;;;21.40;16.42;;;14.80;96.20;;;;;;5033962;28;20020;-77
2023/04/09 10:49:16;;;;;;;16.13;13.98;;;14.90;95.30;;;;;;5037005;28;20021;-79
2023/04/09 10:52:01;;;;;;;18.15;15.95;;;14.80;95.40;;;;;;5016397;28;20040;-79
2023/04/09 10:54:32;;;;;;;18.50;15.40;;;14.80;95.30;;;;;;5038242;28;20013;-79
2023/04/09 10:57:07;;;;;;;20.25;16.95;;;14.90;95.60;;;;;;5036405;28;20072;-79
2023/04/09 10:59:48;;;;;;;20.27;16.23;;;15.00;94.90;;;;;;5041474;28;20017;-79
2023/04/09 11:02:44;;;;;;;21.70;18.05;;;15.00;94.90;;;;;;5042690;28;20138;-79
2023/04/09 11:05:26;;;;;;;21.05;17.38;;;15.00;94.80;;;;;;5053706;28;20025;-81
2023/04/09 11:08:06;;;;;;;19.48;14.77;;;15.00;94.80;;;;;;5053244;28;20029;-80
2023/04/09 11:10:32;;;;;;;14.23;11.75;;;15.00;94.60;;;;;;5036094;28;20037;-80
2023/04/09 11:12:58;;;;;;;16.58;13.20;;;15.00;94.60;;;;;;5045392;28;20053;-79
2023/04/09 11:15:24;;;;;;;13.82;12.02;;;15.10;94.30;;;;;;5046896;28;20060;-80
2023/04/09 11:17:49;;;;;;;12.93;9.55;;;15.20;93.80;;;;;;5040634;28;20057;-80
2023/04/09 11:20:20;;;;;;;12.32;10.27;;;15.20;93.70;;;;;;5047422;28;20033;-79
2023/04/09 11:22:45;;;;;;;11.50;8.35;;;15.30;92.90;;;;;;5045622;28;20025;-80
2023/04/09 11:25:20;;;;;;;8.88;7.97;;;15.20;91.90;;;;;;5046245;28;20032;-81
2023/04/09 11:27:46;;;;;;;8.88;7.13;;;15.20;91.60;;;;;;5044806;28;20492;-84
2023/04/09 11:30:12;;;;;;;10.52;8.77;;;15.20;91.40;;;;;;5048201;28;20021;-77
2023/04/09 11:32:37;;;;;;;12.35;9.40;;;15.20;90.80;;;;;;5052623;28;20078;-80
2023/04/09 11:35:03;;;;;;;9.73;8.20;;;15.10;90.50;;;;;;5038933;28;20090;-83
2023/04/09 11:37:29;;;;;;;12.75;8.80;;;15.10;90.40;;;;;;5045278;28;20103;-82
2023/04/09 11:39:56;;;;;;;10.10;8.70;;;15.10;90.50;;;;;;5041610;28;20064;-82
2023/04/09 11:42:22;;;;;;;8.48;7.45;;;15.10;88.40;;;;;;5037889;28;20018;-75
2023/04/09 11:44:48;;;;;;;6.93;6.15;;;15.00;86.10;;;;;;5041882;28;20466;-75
2023/04/09 11:47:16;;;;;;;9.57;7.40;;;15.00;85.20;;;;;;5036901;28;20470;-76
2023/04/09 11:49:42;;;;;;;9.32;7.68;;;15.00;84.30;;;;;;5039060;28;20385;-75
2023/04/09 11:52:09;;;;;;;11.05;9.20;;;14.90;83.30;;;;;;5038585;28;20075;-75
2023/04/09 11:54:35;;;;;;;9.50;8.20;;;14.90;84.40;;;;;;5042014;28;20017;-75
2023/04/09 11:57:03;;;;;;;10.63;8.98;;;14.90;85.10;;;;;;5037067;28;20112;-76
2023/04/09 11:59:29;;;;;;;9.63;8.30;;;15.00;85.20;;;;;;5043358;28;20370;-76
2023/04/09 12:01:57;;;;;;;9.82;8.65;;;15.00;84.50;;;;;;5037329;28;20044;-75
2023/04/09 12:04:22;;;;;;;9.65;8.27;;;15.00;84.70;;;;;;5032342;28;20465;-76
2023/04/09 12:06:48;;;;;;;10.85;9.52;;;15.00;85.00;;;;;;5040599;28;20026;-76
2023/04/09 12:09:15;;;;;;;12.73;9.52;;;15.00;84.90;;;;;;5045271;28;20032;-76
2023/04/09 12:11:44;;;;;;;11.23;8.70;;;15.00;85.80;;;;;;5041696;28;20022;-75
2023/04/09 12:14:20;;;;;;;11.75;10.50;;;15.10;85.90;;;;;;5035502;28;20025;-76
2023/04/09 12:16:50;;;;;;;14.70;12.05;;;15.10;86.30;;;;;;5040359;28;20094;-75
2023/04/09 12:19:18;;;;;;;13.27;11.45;;;15.10;85.50;;;;;;5044358;28;20029;-76
2023/04/09 12:21:57;;;;;;;14.50;11.15;;;15.10;85.80;;;;;;5030414;28;20037;-75
2023/04/09 12:24:23;;;;;;;12.50;11.20;;;15.10;85.80;;;;;;5037118;28;20549;-74
2023/04/09 12:26:50;;;;;;;14.60;12.25;;;15.10;85.90;;;;;;5034980;28;20028;-75
2023/04/09 12:29:17;;;;;;;15.73;13.15;;;15.10;85.40;;;;;;5022042;28;20029;-75
2023/04/09 12:31:43;;;;;;;14.77;12.93;;;15.10;85.50;;;;;;5046398;28;20489;-75
2023/04/09 12:34:09;;;;;;;14.73;13.20;;;15.20;85.90;;;;;;5031472;28;20033;-75